createdAt,value
2023-05-17T00:02:15.591Z,11.95
2023-05-17T00:07:17.464Z,11.94
2023-05-17T00:12:19.245Z,11.92
2023-05-17T00:17:21.079Z,11.90
2023-05-17T00:22:22.741Z,11.90
2023-05-17T00:27:24.399Z,11.85
2023-05-17T00:32:26.201Z,11.83
2023-05-17T00:37:27.924Z,11.80
2023-05-17T00:42:29.568Z,11.79
2023-05-17T00:47:31.332Z,11.76
2023-05-17T00:52:33.273Z,11.76
2023-05-17T00:57:35.836Z,11.77
2023-05-17T01:02:37.843Z,11.78
2023-05-17T01:07:40.179Z,11.79
2023-05-17T01:13:01.298Z,11.80
2023-05-17T01:18:35.234Z,11.77
2023-05-17T01:23:59.286Z,11.74
2023-05-17T01:29:02.635Z,11.73
2023-05-17T01:34:08.832Z,11.71
2023-05-17T01:39:10.531Z,11.67
2023-05-17T01:44:18.331Z,11.64
2023-05-17T01:49:30.342Z,11.64
2023-05-17T01:54:39.273Z,11.66
2023-05-17T01:59:44.167Z,11.67
2023-05-17T02:04:46.177Z,11.65
2023-05-17T02:09:47.949Z,11.58
2023-05-17T02:14:49.670Z,11.48
2023-05-17T02:19:52.119Z,11.38
2023-05-17T02:24:53.790Z,11.31
2023-05-17T02:29:55.569Z,11.28
2023-05-17T02:34:57.288Z,11.27
2023-05-17T02:39:59.072Z,11.27
2023-05-17T02:45:01.208Z,11.24
2023-05-17T02:50:05.569Z,11.17
2023-05-17T02:55:07.699Z,11.14
2023-05-17T03:00:09.830Z,11.11
2023-05-17T03:05:15.731Z,11.06
2023-05-17T03:10:22.730Z,10.98
2023-05-17T03:15:26.719Z,10.87
2023-05-17T03:20:28.695Z,10.79
2023-05-17T03:25:31.238Z,10.72
2023-05-17T03:30:33.137Z,10.63
2023-05-17T03:35:35.289Z,10.50
2023-05-17T03:40:37.202Z,10.42
2023-05-17T03:45:38.903Z,10.36
2023-05-17T03:50:41.439Z,10.31
2023-05-17T03:55:43.786Z,10.28
2023-05-17T04:00:45.493Z,10.25
2023-05-17T04:05:48.674Z,10.24
2023-05-17T04:10:50.426Z,10.23
2023-05-17T04:15:52.124Z,10.20
2023-05-17T04:20:55.594Z,10.15
2023-05-17T04:25:58.137Z,10.09
2023-05-17T04:31:00.196Z,10.05
2023-05-17T04:36:02.655Z,10.01
2023-05-17T04:41:06.644Z,9.94
2023-05-17T04:46:10.340Z,9.87
2023-05-17T04:51:12.983Z,9.83
2023-05-17T04:56:15.094Z,9.77
2023-05-17T05:01:17.396Z,9.71
2023-05-17T05:06:19.898Z,9.71
2023-05-17T05:11:21.695Z,9.74
2023-05-17T05:16:24.867Z,9.73
2023-05-17T05:21:26.820Z,9.73
2023-05-17T05:26:29.209Z,9.74
2023-05-17T05:31:31.861Z,9.73
2023-05-17T05:36:35.111Z,9.70
2023-05-17T05:41:36.890Z,9.68
2023-05-17T05:46:38.826Z,9.65
2023-05-17T05:51:41.048Z,9.58
2023-05-17T05:56:43.072Z,9.52
2023-05-17T06:01:46.332Z,9.47
2023-05-17T06:06:48.523Z,9.42
2023-05-17T06:11:53.624Z,9.36
2023-05-17T06:16:55.396Z,9.33
2023-05-17T06:21:57.114Z,9.29
2023-05-17T06:26:58.952Z,9.30
2023-05-17T06:32:00.816Z,9.30
2023-05-17T06:37:03.570Z,9.31
2023-05-17T06:42:05.441Z,9.31
2023-05-17T06:47:09.144Z,9.32
2023-05-17T06:52:10.832Z,9.34
2023-05-17T06:57:12.666Z,9.38
2023-05-17T07:02:14.360Z,9.39
2023-05-17T07:07:16.224Z,9.44
2023-05-17T07:12:18.135Z,9.51
2023-05-17T07:17:19.831Z,9.55
2023-05-17T07:22:21.560Z,9.57
2023-05-17T07:27:23.324Z,9.69
2023-05-17T07:32:25.061Z,9.79
2023-05-17T07:37:26.978Z,9.89
2023-05-17T07:42:28.653Z,9.90
2023-05-17T07:47:31.002Z,9.85
2023-05-17T07:52:32.892Z,9.82
2023-05-17T07:57:34.725Z,9.77
2023-05-17T08:02:36.520Z,9.74
2023-05-17T08:07:38.307Z,9.73
2023-05-17T08:12:40.042Z,9.70
2023-05-17T08:17:41.904Z,9.67
2023-05-17T08:22:43.708Z,9.70
2023-05-17T08:27:45.515Z,9.75
2023-05-17T08:32:48.159Z,9.82
2023-05-17T08:37:50.203Z,9.92
2023-05-17T08:42:52.671Z,9.99
2023-05-17T08:47:55.155Z,10.01
2023-05-17T08:52:58.547Z,10.09
2023-05-17T08:58:01.235Z,10.19
2023-05-17T09:03:02.972Z,10.32
2023-05-17T09:08:05.855Z,10.40
2023-05-17T09:13:07.959Z,10.35
2023-05-17T09:18:13.992Z,10.29
2023-05-17T09:23:21.060Z,10.15
2023-05-17T09:28:23.543Z,9.97
2023-05-17T09:33:25.216Z,9.88
2023-05-17T09:38:30.016Z,9.86
2023-05-17T09:43:31.938Z,9.89
2023-05-17T09:48:34.116Z,9.88
2023-05-17T09:53:40.777Z,9.91
2023-05-17T09:58:42.627Z,9.98
2023-05-17T10:03:44.576Z,10.01
2023-05-17T10:08:51.781Z,10.02
2023-05-17T10:14:05.248Z,10.05
2023-05-17T10:19:07.815Z,10.13
2023-05-17T10:24:11.297Z,10.14
2023-05-17T10:29:13.570Z,10.17
2023-05-17T10:34:17.299Z,10.21
2023-05-17T10:39:19.296Z,10.25
2023-05-17T10:44:22.187Z,10.25
2023-05-17T10:49:30.218Z,10.22
2023-05-17T10:54:36.905Z,10.09
2023-05-17T10:59:58.003Z,9.96
2023-05-17T11:05:00.684Z,9.86
2023-05-17T11:10:11.714Z,9.76
2023-05-17T11:15:17.483Z,9.78
2023-05-17T11:20:25.900Z,9.79
2023-05-17T11:25:30.563Z,9.77
2023-05-17T11:30:33.130Z,9.77
2023-05-17T11:35:38.176Z,9.82
2023-05-17T11:40:40.900Z,9.87
2023-05-17T11:45:53.912Z,9.90
2023-05-17T11:50:56.845Z,9.92
2023-05-17T11:56:05.672Z,9.88
2023-05-17T12:01:09.074Z,9.84
2023-05-17T12:06:16.180Z,9.79
2023-05-17T12:11:18.854Z,9.73
2023-05-17T12:16:24.973Z,9.68
2023-05-17T12:21:26.816Z,9.54
2023-05-17T12:26:28.693Z,9.46
2023-05-17T12:31:36.622Z,9.48
2023-05-17T12:36:38.803Z,9.54
2023-05-17T12:41:42.040Z,9.51
2023-05-17T12:46:45.040Z,9.47
2023-05-17T12:51:47.731Z,9.47
2023-05-17T12:56:49.715Z,9.51
2023-05-17T13:01:56.925Z,9.58
2023-05-17T13:07:00.944Z,9.69
2023-05-17T13:12:07.116Z,9.76
2023-05-17T13:17:22.319Z,9.81
2023-05-17T13:22:25.198Z,9.82
2023-05-17T13:27:28.152Z,9.79
2023-05-17T13:32:29.896Z,9.75
2023-05-17T13:37:32.003Z,9.67
2023-05-17T13:42:33.936Z,9.61
2023-05-17T13:47:36.155Z,9.58
2023-05-17T13:52:37.901Z,9.57
2023-05-17T13:57:39.649Z,9.58
2023-05-17T14:02:41.745Z,9.60
2023-05-17T14:07:44.419Z,9.64
2023-05-17T14:12:47.025Z,9.69
2023-05-17T14:17:49.872Z,9.73
2023-05-17T14:22:51.850Z,9.73
2023-05-17T14:27:53.905Z,9.78
2023-05-17T14:32:55.795Z,9.85
2023-05-17T14:37:57.639Z,9.88
2023-05-17T14:42:59.429Z,9.93
2023-05-17T14:48:01.227Z,10.03
2023-05-17T14:53:03.123Z,10.12
2023-05-17T14:58:04.968Z,10.18
2023-05-17T15:03:06.729Z,10.19
2023-05-17T15:08:08.820Z,10.18
2023-05-17T15:13:10.583Z,10.19
2023-05-17T15:18:13.792Z,10.22
2023-05-17T15:23:16.150Z,10.22
2023-05-17T15:28:19.944Z,10.26
2023-05-17T15:33:22.185Z,10.27
2023-05-17T15:38:24.067Z,10.21
2023-05-17T15:43:25.774Z,10.12
2023-05-17T15:48:30.350Z,10.13
2023-05-17T15:53:33.318Z,10.16
2023-05-17T15:58:35.572Z,10.22
2023-05-17T16:03:37.494Z,10.27
2023-05-17T16:08:39.232Z,10.35
2023-05-17T16:13:41.151Z,10.39
2023-05-17T16:18:42.939Z,10.39
2023-05-17T16:23:44.844Z,10.41
2023-05-17T16:28:46.689Z,10.42
2023-05-17T16:33:48.440Z,10.43
2023-05-17T16:38:51.664Z,10.42
2023-05-17T16:43:53.375Z,10.42
2023-05-17T16:48:55.564Z,10.45
2023-05-17T16:53:57.356Z,10.48
2023-05-17T16:58:59.134Z,10.46
2023-05-17T17:04:01.825Z,10.45
2023-05-17T17:09:08.009Z,10.39
2023-05-17T17:14:11.173Z,10.35
2023-05-17T17:19:12.916Z,10.34
2023-05-17T17:24:14.850Z,10.37
2023-05-17T17:29:16.794Z,10.35
2023-05-17T17:34:18.454Z,10.31
2023-05-17T17:39:20.089Z,10.27
2023-05-17T17:44:21.987Z,10.25
2023-05-17T17:49:23.635Z,10.20
2023-05-17T17:54:25.553Z,10.17
2023-05-17T17:59:27.214Z,10.12
2023-05-17T18:04:28.954Z,10.09
2023-05-17T18:09:30.930Z,10.05
2023-05-17T18:14:33.823Z,10.01
2023-05-17T18:19:35.769Z,9.92
2023-05-17T18:24:37.480Z,9.88
2023-05-17T18:29:42.739Z,9.85
2023-05-17T18:34:44.525Z,9.81
2023-05-17T18:39:46.234Z,9.80
2023-05-17T18:44:48.395Z,9.80
2023-05-17T18:49:51.914Z,9.78
2023-05-17T18:54:54.639Z,9.75
2023-05-17T18:59:56.334Z,9.74
2023-05-17T19:04:58.015Z,9.73
2023-05-17T19:09:59.854Z,9.69
2023-05-17T19:15:03.086Z,9.62
2023-05-17T19:20:05.374Z,9.58
2023-05-17T19:25:07.776Z,9.56
2023-05-17T19:30:09.970Z,9.54
2023-05-17T19:35:11.686Z,9.52
2023-05-17T19:40:15.225Z,9.50
2023-05-17T19:45:18.042Z,9.50
2023-05-17T19:50:20.121Z,9.49
2023-05-17T19:55:22.989Z,9.46
2023-05-17T20:00:25.374Z,9.42
2023-05-17T20:05:27.281Z,9.41
2023-05-17T20:10:32.676Z,9.41
2023-05-17T20:15:34.732Z,9.39
2023-05-17T20:20:36.652Z,9.38
2023-05-17T20:25:39.831Z,9.35
2023-05-17T20:30:44.311Z,9.34
2023-05-17T20:35:46.277Z,9.34
2023-05-17T20:40:48.161Z,9.34
2023-05-17T20:45:53.805Z,9.31
2023-05-17T20:50:55.588Z,9.26
2023-05-17T20:55:58.149Z,9.26
2023-05-17T21:01:01.281Z,9.30
2023-05-17T21:06:05.192Z,9.27
2023-05-17T21:11:08.738Z,9.24
2023-05-17T21:16:10.617Z,9.21
2023-05-17T21:21:12.836Z,9.20
2023-05-17T21:26:14.654Z,9.16
2023-05-17T21:31:16.662Z,9.14
2023-05-17T21:36:18.521Z,9.12
2023-05-17T21:41:21.581Z,9.10
2023-05-17T21:46:29.445Z,9.08
2023-05-17T21:51:32.378Z,9.06
2023-05-17T21:56:34.091Z,9.05
2023-05-17T22:01:35.835Z,9.04
2023-05-17T22:06:37.783Z,9.04
2023-05-17T22:11:40.644Z,9.02
2023-05-17T22:16:42.424Z,8.98
2023-05-17T22:21:44.104Z,8.96
2023-05-17T22:26:45.960Z,8.99
2023-05-17T22:31:50.172Z,9.02
2023-05-17T22:36:51.902Z,8.99
2023-05-17T22:41:53.563Z,8.96
2023-05-17T22:46:57.725Z,8.94
2023-05-17T22:52:07.533Z,8.92
2023-05-17T22:57:09.676Z,8.86
2023-05-17T23:02:14.109Z,8.83
2023-05-17T23:07:16.389Z,8.82
2023-05-17T23:12:27.451Z,8.81
2023-05-17T23:17:32.596Z,8.80
2023-05-17T23:22:34.733Z,8.82
2023-05-17T23:27:36.568Z,8.83
2023-05-17T23:32:38.373Z,8.81
2023-05-17T23:37:41.414Z,8.80
2023-05-17T23:43:04.422Z,8.79
2023-05-17T23:48:26.230Z,8.78
2023-05-17T23:53:28.209Z,8.74
2023-05-17T23:58:29.953Z,8.70
